Time;durP1;ratioP1;P1;durP2;ratioP2;P2;SDS_P1;SDS_P2;PMS_P1;PMS_P2;Temp;Humidity;BMP_temperature;BMP_pressure;BME280_temperature;BME280_humidity;BME280_pressure;Samples;Min_cycle;Max_cycle;Signal;HPM_P1;HPM_P2
2021/09/09 00:00:47;;;;;;;58.40;3.07;;;16.10;1.00;;;;;;5050961;28;20490;-70
2021/09/09 00:03:14;;;;;;;58.87;3.70;;;16.10;1.00;;;;;;5051310;28;20570;-70
2021/09/09 00:05:41;;;;;;;58.90;3.30;;;16.00;1.00;;;;;;5051416;28;20449;-70
2021/09/09 00:08:07;;;;;;;58.87;3.10;;;16.10;1.00;;;;;;5051256;28;20447;-70
2021/09/09 00:10:34;;;;;;;58.67;2.83;;;16.00;1.00;;;;;;5050910;28;20454;-70
2021/09/09 00:13:01;;;;;;;58.60;3.53;;;16.00;1.00;;;;;;5051055;28;20466;-69
2021/09/09 00:15:30;;;;;;;59.00;3.50;;;16.00;1.00;;;;;;5051416;28;20844;-70
2021/09/09 00:17:57;;;;;;;60.30;3.00;;;16.00;1.00;;;;;;5054607;28;20443;-70
2021/09/09 00:20:24;;;;;;;58.80;3.23;;;16.00;1.00;;;;;;5054981;28;20478;-70
2021/09/09 00:22:51;;;;;;;58.37;2.60;;;16.00;1.00;;;;;;5053028;28;20469;-69
2021/09/09 00:25:17;;;;;;;59.50;3.63;;;16.00;1.00;;;;;;5054438;28;20455;-69
2021/09/09 00:27:44;;;;;;;60.40;3.70;;;15.90;1.00;;;;;;5054537;28;20486;-69
2021/09/09 00:30:12;;;;;;;58.37;2.93;;;15.90;1.00;;;;;;5054462;28;20456;-69
2021/09/09 00:32:41;;;;;;;58.80;3.00;;;15.80;1.00;;;;;;5054813;28;20913;-69
2021/09/09 00:35:08;;;;;;;59.00;4.03;;;15.90;1.00;;;;;;5054949;28;20473;-69
2021/09/09 00:37:35;;;;;;;58.57;2.80;;;15.90;1.00;;;;;;5054624;28;20491;-69
2021/09/09 00:40:02;;;;;;;59.93;4.73;;;15.90;1.00;;;;;;5054333;28;20493;-69
2021/09/09 00:42:29;;;;;;;58.43;3.17;;;15.80;1.00;;;;;;5055048;28;20457;-69
2021/09/09 00:44:56;;;;;;;58.37;3.20;;;15.80;1.00;;;;;;5054627;28;20448;-69
2021/09/09 00:47:23;;;;;;;58.90;3.43;;;15.80;1.00;;;;;;5054551;28;20535;-69
2021/09/09 00:49:51;;;;;;;58.90;3.50;;;15.80;1.00;;;;;;5053816;28;20485;-68
2021/09/09 00:52:18;;;;;;;59.00;3.73;;;15.80;1.00;;;;;;5054072;28;20497;-68
2021/09/09 00:54:47;;;;;;;58.47;3.07;;;15.70;1.00;;;;;;5059540;28;20478;-68
2021/09/09 00:57:16;;;;;;;58.93;3.03;;;15.80;1.00;;;;;;5074557;28;20453;-68
2021/09/09 00:59:44;;;;;;;61.63;4.50;;;15.70;1.00;;;;;;5074335;28;20453;-69
2021/09/09 01:02:11;;;;;;;58.50;2.90;;;15.70;1.00;;;;;;5074399;28;20450;-69
2021/09/09 01:04:38;;;;;;;58.93;3.43;;;15.80;1.00;;;;;;5071614;28;20485;-68
2021/09/09 01:07:07;;;;;;;58.37;3.00;;;15.80;1.00;;;;;;5074417;28;20533;-68
2021/09/09 01:09:34;;;;;;;58.70;3.10;;;15.70;1.00;;;;;;5073998;28;20578;-68
2021/09/09 01:12:01;;;;;;;59.07;3.80;;;15.70;1.00;;;;;;5074167;28;20939;-68
2021/09/09 01:14:27;;;;;;;58.23;3.00;;;15.70;1.00;;;;;;5074106;28;20536;-68
2021/09/09 01:16:54;;;;;;;59.40;4.23;;;15.70;1.00;;;;;;5073868;28;20532;-69
2021/09/09 01:19:21;;;;;;;58.17;2.90;;;15.70;1.00;;;;;;5073762;28;20441;-69
2021/09/09 01:21:48;;;;;;;59.30;3.80;;;15.70;1.00;;;;;;5074068;28;20874;-69
2021/09/09 01:24:17;;;;;;;58.83;3.83;;;15.60;1.00;;;;;;5073924;28;21060;-69
2021/09/09 01:26:51;;;;;;;59.00;3.50;;;15.60;1.00;;;;;;5065667;28;20951;-69
2021/09/09 01:29:18;;;;;;;59.27;3.20;;;15.60;1.00;;;;;;5051837;28;20477;-69
2021/09/09 01:31:46;;;;;;;58.37;2.97;;;15.60;1.00;;;;;;5053853;28;20453;-69
2021/09/09 01:34:12;;;;;;;58.20;2.90;;;15.60;1.00;;;;;;5053937;28;20635;-69
2021/09/09 01:36:39;;;;;;;58.70;2.87;;;15.60;1.00;;;;;;5053723;28;20511;-69
2021/09/09 01:39:06;;;;;;;58.57;3.10;;;15.50;1.00;;;;;;5053527;28;20830;-69
2021/09/09 01:41:35;;;;;;;58.40;2.90;;;15.50;1.00;;;;;;5053851;28;20539;-69
2021/09/09 01:44:02;;;;;;;58.70;3.90;;;15.50;1.00;;;;;;5053208;28;21041;-69
2021/09/09 01:46:29;;;;;;;61.67;3.10;;;15.50;1.00;;;;;;5053231;28;20546;-69
2021/09/09 01:48:57;;;;;;;59.40;3.40;;;15.50;1.00;;;;;;5053189;28;20588;-69
2021/09/09 01:51:25;;;;;;;59.17;2.80;;;15.50;1.00;;;;;;5053245;28;20450;-69
2021/09/09 01:53:52;;;;;;;58.43;3.17;;;15.50;1.00;;;;;;5053319;28;20477;-69
2021/09/09 01:56:19;;;;;;;58.60;3.40;;;15.50;1.00;;;;;;5053216;28;20545;-69
2021/09/09 01:58:47;;;;;;;59.17;3.47;;;15.50;1.00;;;;;;5058143;28;20480;-69
2021/09/09 02:01:14;;;;;;;58.43;2.70;;;15.50;1.00;;;;;;5072932;28;20450;-69
2021/09/09 02:03:41;;;;;;;58.47;2.70;;;15.50;1.00;;;;;;5073112;28;20484;-69
2021/09/09 02:06:08;;;;;;;58.67;3.00;;;15.50;1.00;;;;;;5073108;28;20449;-69
2021/09/09 02:08:35;;;;;;;58.47;3.20;;;15.50;1.00;;;;;;5072993;28;20581;-69
2021/09/09 02:11:02;;;;;;;59.10;3.67;;;15.40;1.00;;;;;;5072702;28;20448;-69
2021/09/09 02:13:28;;;;;;;58.47;3.20;;;15.40;1.00;;;;;;5072829;28;21040;-69
2021/09/09 02:15:57;;;;;;;58.60;3.17;;;15.40;1.00;;;;;;5073310;28;20450;-69
2021/09/09 02:18:24;;;;;;;58.33;2.97;;;15.30;1.00;;;;;;5072995;28;20452;-69
2021/09/09 02:20:50;;;;;;;59.87;3.10;;;15.30;1.00;;;;;;5072579;28;21047;-69
2021/09/09 02:23:17;;;;;;;60.33;4.87;;;15.30;1.00;;;;;;5073239;28;20464;-69
2021/09/09 02:25:44;;;;;;;58.33;2.80;;;15.30;1.00;;;;;;5072579;28;20451;-69
2021/09/09 02:28:11;;;;;;;58.47;3.00;;;15.30;1.00;;;;;;5072460;28;20952;-69
2021/09/09 02:30:39;;;;;;;58.73;3.10;;;15.30;1.00;;;;;;5071147;28;21590;-69
2021/09/09 02:33:07;;;;;;;59.10;3.63;;;15.20;1.00;;;;;;5072598;28;20547;-69
2021/09/09 02:35:34;;;;;;;58.63;3.27;;;15.20;1.00;;;;;;5072715;28;20823;-69
2021/09/09 02:38:01;;;;;;;58.87;3.23;;;15.20;1.00;;;;;;5072383;28;20452;-69
2021/09/09 02:40:28;;;;;;;58.87;3.27;;;15.20;1.00;;;;;;5071726;28;20543;-69
2021/09/09 02:42:54;;;;;;;58.27;2.83;;;15.20;1.00;;;;;;5072030;28;20560;-69
2021/09/09 02:45:23;;;;;;;58.60;2.90;;;15.10;1.00;;;;;;5072520;28;20578;-69
2021/09/09 02:47:50;;;;;;;58.70;3.00;;;15.10;1.00;;;;;;5071935;28;20862;-68
2021/09/09 02:50:18;;;;;;;58.37;2.70;;;15.10;1.00;;;;;;5071860;28;20487;-68
2021/09/09 02:52:45;;;;;;;58.40;2.70;;;15.10;1.00;;;;;;5072628;28;20469;-69
2021/09/09 02:55:13;;;;;;;59.60;4.23;;;15.10;1.00;;;;;;5072422;28;20455;-69
2021/09/09 02:57:40;;;;;;;58.90;3.73;;;15.10;1.00;;;;;;5072355;28;20448;-69
2021/09/09 03:00:08;;;;;;;58.07;2.50;;;15.00;1.00;;;;;;5072223;28;20534;-69
2021/09/09 03:02:35;;;;;;;58.60;3.30;;;15.00;1.00;;;;;;5071970;28;20496;-69
2021/09/09 03:05:02;;;;;;;58.37;2.93;;;15.00;1.00;;;;;;5070116;28;20539;-69
2021/09/09 03:07:30;;;;;;;59.10;4.03;;;15.00;1.00;;;;;;5071917;28;21051;-69
2021/09/09 03:09:57;;;;;;;58.57;3.07;;;14.90;1.00;;;;;;5071572;28;21007;-69
2021/09/09 03:12:23;;;;;;;58.50;2.70;;;14.90;1.00;;;;;;5071797;28;20447;-69
2021/09/09 03:14:50;;;;;;;58.27;2.70;;;14.90;1.00;;;;;;5071952;28;20440;-69
2021/09/09 03:17:17;;;;;;;58.50;2.67;;;14.90;1.00;;;;;;5071951;28;20555;-69
2021/09/09 03:19:44;;;;;;;58.37;2.90;;;14.90;1.00;;;;;;5071624;28;20960;-69
2021/09/09 03:22:11;;;;;;;58.77;3.20;;;14.90;1.00;;;;;;5071827;28;20535;-69
2021/09/09 03:24:39;;;;;;;58.80;3.33;;;14.90;1.00;;;;;;5071729;28;20468;-69
2021/09/09 03:27:06;;;;;;;58.47;3.30;;;14.90;1.00;;;;;;5071752;28;21011;-69
2021/09/09 03:29:33;;;;;;;60.20;5.13;;;14.90;1.00;;;;;;5071489;28;20487;-69
2021/09/09 03:32:00;;;;;;;58.70;3.27;;;14.90;1.00;;;;;;5071702;28;21008;-69
2021/09/09 03:34:26;;;;;;;58.13;3.07;;;14.90;1.00;;;;;;5071186;28;20554;-69
2021/09/09 03:36:53;;;;;;;58.43;3.07;;;14.90;1.00;;;;;;5056668;28;20448;-69
2021/09/09 03:39:20;;;;;;;58.40;3.23;;;14.80;1.00;;;;;;5051028;28;20534;-69
2021/09/09 03:41:48;;;;;;;58.60;3.07;;;14.90;1.00;;;;;;5051644;28;20536;-69
2021/09/09 03:44:15;;;;;;;58.70;3.50;;;14.80;1.00;;;;;;5051030;28;20475;-69
2021/09/09 03:46:42;;;;;;;58.80;3.53;;;14.80;1.00;;;;;;5051582;28;20688;-69
2021/09/09 03:49:09;;;;;;;58.67;3.00;;;14.80;1.00;;;;;;5051465;28;20567;-69
2021/09/09 03:51:36;;;;;;;60.20;3.57;;;14.80;1.00;;;;;;5052923;28;20544;-69
2021/09/09 03:54:03;;;;;;;59.57;3.57;;;14.70;1.00;;;;;;5055577;28;20552;-69
2021/09/09 03:56:29;;;;;;;59.10;3.93;;;14.70;1.00;;;;;;5055489;28;20459;-69
2021/09/09 03:58:58;;;;;;;58.37;2.97;;;14.70;1.00;;;;;;5056144;28;20733;-69
2021/09/09 04:01:24;;;;;;;58.90;3.63;;;14.70;1.00;;;;;;5055112;28;20564;-69
2021/09/09 04:03:51;;;;;;;58.77;3.27;;;14.80;1.00;;;;;;5054776;28;20515;-69
2021/09/09 04:06:20;;;;;;;58.07;3.37;;;14.80;1.00;;;;;;5055513;28;20450;-69
2021/09/09 04:08:47;;;;;;;59.50;3.50;;;14.70;1.00;;;;;;5054361;28;20488;-69
2021/09/09 04:11:14;;;;;;;58.30;3.03;;;14.70;1.00;;;;;;5055156;28;20547;-69
2021/09/09 04:13:40;;;;;;;58.67;3.00;;;14.70;1.00;;;;;;5055104;28;20468;-69
2021/09/09 04:16:09;;;;;;;58.23;2.90;;;14.70;1.00;;;;;;5055126;28;20873;-69
2021/09/09 04:18:35;;;;;;;58.37;2.90;;;14.70;1.00;;;;;;5055354;28;20906;-69
2021/09/09 04:21:02;;;;;;;58.13;2.60;;;14.80;1.00;;;;;;5054843;28;20451;-69
2021/09/09 04:23:29;;;;;;;58.13;2.90;;;14.70;1.00;;;;;;5055050;28;20471;-69
2021/09/09 04:25:56;;;;;;;58.37;2.87;;;14.70;1.00;;;;;;5055187;28;20548;-69
2021/09/09 04:28:23;;;;;;;58.47;2.83;;;14.70;1.00;;;;;;5054831;28;20450;-69
2021/09/09 04:30:51;;;;;;;58.27;2.90;;;14.80;1.00;;;;;;5054503;28;20479;-68
2021/09/09 04:33:19;;;;;;;58.17;2.90;;;14.80;1.00;;;;;;5054857;28;20853;-69
2021/09/09 04:35:46;;;;;;;58.13;2.90;;;14.80;1.00;;;;;;5055045;28;20450;-69
2021/09/09 04:38:13;;;;;;;58.30;2.80;;;14.80;1.00;;;;;;5054782;28;20448;-69
2021/09/09 04:40:40;;;;;;;59.67;3.30;;;14.80;1.00;;;;;;5071914;28;20535;-69
2021/09/09 04:43:07;;;;;;;58.77;2.97;;;14.80;1.00;;;;;;5074601;28;20468;-69
2021/09/09 04:45:34;;;;;;;58.23;2.70;;;14.80;1.00;;;;;;5074949;28;20445;-69
2021/09/09 04:48:02;;;;;;;58.57;3.43;;;14.80;1.00;;;;;;5074736;28;20531;-69
2021/09/09 04:50:30;;;;;;;58.37;3.30;;;14.80;1.00;;;;;;5074318;28;20515;-69
2021/09/09 04:52:57;;;;;;;58.23;2.87;;;14.80;1.00;;;;;;5074666;28;20470;-69
2021/09/09 04:55:24;;;;;;;58.50;2.83;;;14.80;1.00;;;;;;5074562;28;20534;-69
2021/09/09 04:57:50;;;;;;;58.37;2.93;;;14.80;1.00;;;;;;5074251;28;20480;-69
2021/09/09 05:00:17;;;;;;;58.27;2.67;;;14.80;1.00;;;;;;5073871;28;20442;-69
2021/09/09 05:02:44;;;;;;;58.07;2.60;;;14.80;1.00;;;;;;5074276;28;20537;-69
2021/09/09 05:05:12;;;;;;;58.47;2.90;;;14.80;1.00;;;;;;5074270;28;20525;-69
2021/09/09 05:07:41;;;;;;;58.47;3.57;;;14.80;1.00;;;;;;5074298;28;20543;-69
2021/09/09 05:10:08;;;;;;;58.40;2.90;;;14.80;1.00;;;;;;5071111;28;20498;-69
2021/09/09 05:12:35;;;;;;;58.03;2.90;;;14.80;1.00;;;;;;5074682;28;20476;-69
2021/09/09 05:15:02;;;;;;;58.17;3.10;;;14.80;1.00;;;;;;5074143;28;20953;-69
2021/09/09 05:17:29;;;;;;;58.33;2.70;;;14.80;1.00;;;;;;5074059;28;20505;-69
2021/09/09 05:19:56;;;;;;;58.27;3.03;;;14.80;1.00;;;;;;5073929;28;20482;-69
2021/09/09 05:22:23;;;;;;;58.50;3.40;;;14.90;1.00;;;;;;5074019;28;20532;-69
2021/09/09 05:24:51;;;;;;;58.70;3.10;;;14.90;1.00;;;;;;5073734;28;20951;-69
2021/09/09 05:27:18;;;;;;;60.57;3.57;;;14.90;1.00;;;;;;5074131;28;20555;-69
2021/09/09 05:29:45;;;;;;;58.50;2.90;;;14.90;1.00;;;;;;5073621;28;20488;-69
2021/09/09 05:32:11;;;;;;;57.97;2.80;;;14.90;1.00;;;;;;5073942;28;20491;-69
2021/09/09 05:34:38;;;;;;;58.57;3.20;;;14.90;1.00;;;;;;5073646;28;21028;-70
2021/09/09 05:37:05;;;;;;;59.10;3.00;;;14.90;1.00;;;;;;5073651;28;20444;-69
2021/09/09 05:39:32;;;;;;;58.93;3.10;;;15.00;1.00;;;;;;5073458;28;20936;-69
2021/09/09 05:42:00;;;;;;;58.30;2.83;;;15.00;1.00;;;;;;5067156;28;20535;-69
2021/09/09 05:44:27;;;;;;;58.80;4.17;;;15.10;1.00;;;;;;5053148;28;20909;-69
2021/09/09 05:46:54;;;;;;;58.90;3.07;;;15.10;1.00;;;;;;5053715;28;20971;-70
2021/09/09 05:49:21;;;;;;;58.60;3.00;;;15.10;1.00;;;;;;5053586;28;20481;-69
2021/09/09 05:51:48;;;;;;;60.60;3.67;;;15.10;1.00;;;;;;5053319;28;20480;-69
2021/09/09 05:54:14;;;;;;;59.07;4.03;;;15.20;1.00;;;;;;5053386;28;20977;-69
2021/09/09 05:56:41;;;;;;;58.97;4.20;;;15.20;1.00;;;;;;5053576;28;20452;-69
2021/09/09 05:59:10;;;;;;;58.13;2.70;;;15.30;1.00;;;;;;5053125;28;20888;-69
2021/09/09 06:01:37;;;;;;;58.70;3.37;;;15.30;1.00;;;;;;5053247;28;20440;-69
2021/09/09 06:04:08;;;;;;;58.20;3.10;;;15.30;1.00;;;;;;5053069;28;20527;-69
2021/09/09 06:06:35;;;;;;;58.80;3.60;;;15.40;1.00;;;;;;5053416;28;20481;-69
2021/09/09 06:09:02;;;;;;;58.80;3.10;;;15.50;1.00;;;;;;5053272;28;20615;-69
2021/09/09 06:11:31;;;;;;;58.37;3.60;;;15.60;1.00;;;;;;5053002;28;20525;-69
2021/09/09 06:13:58;;;;;;;58.27;2.80;;;15.70;1.00;;;;;;5050758;28;20466;-69
2021/09/09 06:16:26;;;;;;;58.17;2.90;;;15.70;1.00;;;;;;5052945;28;20873;-69
2021/09/09 06:18:53;;;;;;;58.47;3.60;;;15.80;1.00;;;;;;5052716;28;20830;-69
2021/09/09 06:21:20;;;;;;;58.17;2.60;;;15.90;1.00;;;;;;5052097;28;20444;-70
2021/09/09 06:23:47;;;;;;;58.50;2.83;;;16.00;1.00;;;;;;5052343;28;20575;-70
2021/09/09 06:26:13;;;;;;;58.13;2.70;;;16.00;1.00;;;;;;5053262;28;20800;-70
2021/09/09 06:28:40;;;;;;;58.60;2.80;;;16.10;1.00;;;;;;5052769;28;21004;-68
2021/09/09 06:31:07;;;;;;;59.00;3.23;;;16.10;1.00;;;;;;5052413;28;20517;-69
2021/09/09 06:33:36;;;;;;;58.90;3.80;;;16.20;1.00;;;;;;5052400;28;20473;-70
2021/09/09 06:36:03;;;;;;;59.00;3.17;;;16.20;1.00;;;;;;5059164;28;20467;-70
2021/09/09 06:38:30;;;;;;;59.33;3.20;;;16.30;1.00;;;;;;5072732;28;20452;-70
2021/09/09 06:40:57;;;;;;;58.67;3.10;;;16.40;1.00;;;;;;5072699;28;20811;-70
2021/09/09 06:43:23;;;;;;;58.70;3.27;;;16.50;1.00;;;;;;5072506;28;20559;-70
2021/09/09 06:45:50;;;;;;;58.40;3.00;;;16.60;1.00;;;;;;5072340;28;20535;-70
2021/09/09 06:48:17;;;;;;;58.53;3.30;;;16.70;1.00;;;;;;5072190;28;20452;-70
2021/09/09 06:50:45;;;;;;;57.77;2.87;;;16.80;1.00;;;;;;5072078;28;20485;-70
2021/09/09 06:53:12;;;;;;;58.37;3.50;;;16.90;1.00;;;;;;5072260;28;20910;-70
2021/09/09 06:55:39;;;;;;;57.80;2.80;;;17.00;1.00;;;;;;5072325;28;20896;-70
2021/09/09 06:58:06;;;;;;;58.80;3.53;;;17.20;1.00;;;;;;5071769;28;20557;-70
2021/09/09 07:00:33;;;;;;;58.20;3.00;;;17.40;1.00;;;;;;5071671;28;20469;-69
2021/09/09 07:02:59;;;;;;;59.47;3.97;;;17.70;1.00;;;;;;5071726;28;20484;-69
2021/09/09 07:05:26;;;;;;;59.47;5.33;;;17.80;1.00;;;;;;5072264;28;20473;-70
2021/09/09 07:07:55;;;;;;;58.17;2.90;;;18.00;1.00;;;;;;5070566;28;20493;-70
2021/09/09 07:10:21;;;;;;;58.50;3.67;;;18.20;1.00;;;;;;5071742;28;20581;-70
2021/09/09 07:12:48;;;;;;;59.30;3.37;;;18.30;1.00;;;;;;5071871;28;20819;-70
2021/09/09 07:15:15;;;;;;;58.33;2.90;;;18.50;1.00;;;;;;5071839;28;20453;-70
2021/09/09 07:17:42;;;;;;;58.47;3.07;;;18.60;1.00;;;;;;5059878;28;20818;-70
2021/09/09 07:20:10;;;;;;;59.07;3.20;;;18.70;1.00;;;;;;5051462;28;21015;-70
2021/09/09 07:22:37;;;;;;;58.13;2.70;;;18.90;1.00;;;;;;5051672;28;20468;-70
2021/09/09 07:25:06;;;;;;;58.27;2.70;;;19.00;1.00;;;;;;5051706;28;20454;-70
2021/09/09 07:27:33;;;;;;;59.87;3.80;;;19.10;1.00;;;;;;5050765;28;20551;-70
2021/09/09 07:30:00;;;;;;;58.40;3.00;;;19.30;1.00;;;;;;5051533;28;20484;-70
2021/09/09 07:32:27;;;;;;;59.63;4.00;;;19.40;1.00;;;;;;5051653;28;20477;-70
2021/09/09 07:34:54;;;;;;;58.47;2.97;;;19.40;1.00;;;;;;5051715;28;20885;-70
2021/09/09 07:37:21;;;;;;;57.93;2.80;;;19.40;1.00;;;;;;5051554;28;20445;-70
2021/09/09 07:39:48;;;;;;;58.30;2.50;;;19.60;1.00;;;;;;5049816;28;20547;-70
2021/09/09 07:42:16;;;;;;;58.40;2.40;;;19.60;1.00;;;;;;5051362;28;20546;-70
2021/09/09 07:44:43;;;;;;;58.57;3.50;;;19.70;1.00;;;;;;5051617;28;20591;-69
2021/09/09 07:47:09;;;;;;;58.77;3.90;;;19.90;1.00;;;;;;5051677;28;20528;-69
2021/09/09 07:49:36;;;;;;;58.27;3.00;;;20.00;1.00;;;;;;5050158;28;20500;-69
2021/09/09 07:52:03;;;;;;;58.47;2.97;;;20.10;1.00;;;;;;5051392;28;20533;-69
2021/09/09 07:54:30;;;;;;;58.57;3.60;;;20.30;1.00;;;;;;5050998;28;20479;-69
2021/09/09 07:56:57;;;;;;;58.70;3.23;;;20.40;1.00;;;;;;5050782;28;20465;-69
2021/09/09 07:59:26;;;;;;;58.00;2.73;;;20.60;1.00;;;;;;5050976;28;20461;-69
2021/09/09 08:01:53;;;;;;;57.93;2.60;;;20.70;1.00;;;;;;5051145;28;20455;-67
2021/09/09 08:04:20;;;;;;;58.77;3.13;;;20.90;1.00;;;;;;5050963;28;20479;-67
2021/09/09 08:06:47;;;;;;;58.20;2.73;;;21.10;1.00;;;;;;5050957;28;20544;-67
2021/09/09 08:09:14;;;;;;;59.33;4.10;;;21.30;1.00;;;;;;5050967;28;20526;-68
2021/09/09 08:11:41;;;;;;;58.53;2.70;;;21.40;1.00;;;;;;5050918;28;20493;-68
2021/09/09 08:14:09;;;;;;;57.97;3.20;;;21.50;1.00;;;;;;5051158;28;20471;-68
2021/09/09 08:16:37;;;;;;;58.60;3.13;;;21.60;1.00;;;;;;5051454;28;21069;-68
2021/09/09 08:19:05;;;;;;;57.83;2.50;;;21.80;1.00;;;;;;5050863;28;20465;-68
2021/09/09 08:21:32;;;;;;;59.00;3.40;;;22.00;1.00;;;;;;5061743;28;20454;-68
2021/09/09 08:23:59;;;;;;;58.80;3.47;;;22.20;1.00;;;;;;5070636;28;20498;-68
2021/09/09 08:26:26;;;;;;;58.17;4.00;;;22.50;1.00;;;;;;5071074;28;20530;-68
2021/09/09 08:28:53;;;;;;;58.87;3.70;;;22.80;1.00;;;;;;5071118;28;20534;-68
2021/09/09 08:31:21;;;;;;;58.40;2.67;;;23.00;1.00;;;;;;5070821;28;20799;-68
2021/09/09 08:33:49;;;;;;;58.27;2.60;;;23.10;1.00;;;;;;5071412;28;20471;-68
2021/09/09 08:36:18;;;;;;;58.70;3.13;;;23.20;1.00;;;;;;5071007;28;20446;-68
2021/09/09 08:38:46;;;;;;;58.10;2.70;;;23.20;1.00;;;;;;5073950;28;20462;-68
2021/09/09 08:41:12;;;;;;;58.73;3.10;;;23.30;1.00;;;;;;5074783;28;20542;-68
2021/09/09 08:43:39;;;;;;;58.67;2.87;;;23.50;1.00;;;;;;5074853;28;20501;-68
2021/09/09 08:46:06;;;;;;;57.87;2.60;;;23.60;1.00;;;;;;5074515;28;20450;-68
2021/09/09 08:48:34;;;;;;;58.70;2.60;;;23.80;1.00;;;;;;5074776;28;20533;-68
2021/09/09 08:51:02;;;;;;;58.90;3.00;;;24.10;1.00;;;;;;5074193;28;20479;-68
2021/09/09 08:53:30;;;;;;;58.00;2.60;;;24.30;1.00;;;;;;5056238;28;20510;-69
2021/09/09 08:55:57;;;;;;;58.63;2.90;;;24.60;1.00;;;;;;5054310;28;20551;-69
2021/09/09 08:58:24;;;;;;;58.83;2.87;;;24.80;1.00;;;;;;5054548;28;20531;-69
2021/09/09 09:01:08;;;;;;;59.77;3.53;;;25.00;1.00;;;;;;5054201;28;20448;-69
2021/09/09 09:03:50;;;;;;;58.40;3.37;;;25.10;1.00;;;;;;5054048;28;20541;-69
2021/09/09 09:06:34;;;;;;;58.87;2.77;;;25.20;1.00;;;;;;5054472;28;20441;-69
2021/09/09 09:09:03;;;;;;;58.67;3.30;;;25.30;1.00;;;;;;5054319;28;20451;-69
2021/09/09 09:11:32;;;;;;;58.30;2.97;;;25.40;1.00;;;;;;5054309;28;20856;-69
2021/09/09 09:14:00;;;;;;;58.80;2.90;;;25.40;1.00;;;;;;5053300;28;20548;-69
2021/09/09 09:16:28;;;;;;;58.30;2.93;;;25.40;1.00;;;;;;5054119;28;20451;-69
2021/09/09 09:18:58;;;;;;;58.87;4.00;;;25.40;1.00;;;;;;5054358;28;20891;-69
2021/09/09 09:21:27;;;;;;;58.70;2.87;;;25.30;1.00;;;;;;5054112;28;20552;-69
2021/09/09 09:23:58;;;;;;;57.87;2.70;;;25.20;1.00;;;;;;5052554;28;20813;-69
2021/09/09 09:26:24;;;;;;;58.80;2.70;;;25.10;1.00;;;;;;5053665;28;20445;-70
2021/09/09 09:28:53;;;;;;;58.10;2.60;;;25.20;1.00;;;;;;5053856;28;21000;-70
2021/09/09 09:31:22;;;;;;;59.77;3.43;;;25.30;1.00;;;;;;5056769;28;20574;-70
2021/09/09 09:33:51;;;;;;;58.37;3.07;;;25.40;1.00;;;;;;5073599;28;20469;-69
2021/09/09 09:36:24;;;;;;;58.17;2.90;;;25.60;1.00;;;;;;5073737;28;20448;-69
2021/09/09 09:38:53;;;;;;;58.93;2.77;;;25.90;1.00;;;;;;5073398;28;20455;-70
2021/09/09 09:41:24;;;;;;;58.20;2.80;;;26.10;1.00;;;;;;5072911;28;20937;-70
2021/09/09 09:44:03;;;;;;;58.33;2.70;;;26.30;1.00;;;;;;5073314;28;20977;-70
2021/09/09 09:46:36;;;;;;;58.10;2.50;;;26.50;1.00;;;;;;5073680;28;20779;-70
2021/09/09 09:49:18;;;;;;;58.53;3.00;;;26.60;1.00;;;;;;5072272;28;20449;-68
2021/09/09 09:51:47;;;;;;;58.10;2.50;;;26.80;1.00;;;;;;5073795;28;20507;-69
2021/09/09 09:54:15;;;;;;;59.37;4.10;;;27.10;1.00;;;;;;5073602;28;20554;-69
2021/09/09 09:56:45;;;;;;;58.23;2.43;;;27.40;1.00;;;;;;5051582;28;20547;-68
2021/09/09 09:59:12;;;;;;;58.40;2.90;;;28.00;1.00;;;;;;5053000;28;20539;-68
2021/09/09 10:01:39;;;;;;;58.00;2.63;;;28.30;1.00;;;;;;5053237;28;20444;-68
2021/09/09 10:04:08;;;;;;;58.07;2.90;;;29.10;1.00;;;;;;5053111;28;20490;-68
2021/09/09 10:06:36;;;;;;;58.60;2.73;;;29.70;1.00;;;;;;5053291;28;20534;-69
2021/09/09 10:09:05;;;;;;;57.80;2.50;;;30.10;1.00;;;;;;5053163;28;20523;-68
2021/09/09 10:11:33;;;;;;;57.93;2.73;;;30.50;1.00;;;;;;5053088;28;20578;-69
2021/09/09 10:14:03;;;;;;;57.90;2.63;;;31.00;1.00;;;;;;5053233;28;20694;-69
2021/09/09 10:16:32;;;;;;;57.97;2.80;;;31.70;1.00;;;;;;5052411;28;20531;-68
2021/09/09 10:18:59;;;;;;;58.40;2.80;;;32.00;1.00;;;;;;5052821;28;20486;-68
2021/09/09 10:21:43;;;;;;;57.70;2.40;;;32.30;1.00;;;;;;5052854;28;20440;-68
2021/09/09 10:24:17;;;;;;;58.70;2.70;;;32.90;1.00;;;;;;5052963;28;21082;-68
2021/09/09 10:26:44;;;;;;;57.80;2.53;;;33.40;1.00;;;;;;5051441;28;20455;-68
2021/09/09 10:29:46;;;;;;;57.37;2.40;;;33.70;1.00;;;;;;5052690;28;20448;-69
2021/09/09 10:32:50;;;;;;;57.67;2.60;;;33.90;1.00;;;;;;5052692;28;20479;-68
2021/09/09 10:35:39;;;;;;;57.77;3.00;;;34.80;1.00;;;;;;5052760;28;20448;-68
2021/09/09 10:38:34;;;;;;;58.47;2.87;;;35.50;1.00;;;;;;5052840;28;20454;-68
2021/09/09 10:41:03;;;;;;;57.67;2.77;;;36.10;1.00;;;;;;5017257;28;20824;-69
2021/09/09 10:44:01;;;;;;;57.07;2.40;;;36.80;1.00;;;;;;5052620;28;21063;-68
2021/09/09 10:46:33;;;;;;;57.77;3.30;;;37.20;1.00;;;;;;5052467;28;21012;-68
2021/09/09 10:49:15;;;;;;;57.70;2.53;;;37.60;1.00;;;;;;5052600;28;20459;-68
2021/09/09 10:52:10;;;;;;;57.40;2.80;;;37.80;1.00;;;;;;5052423;28;20491;-68
2021/09/09 10:55:05;;;;;;;59.60;3.00;;;38.00;1.00;;;;;;5051752;28;20459;-68
2021/09/09 10:57:32;;;;;;;57.73;3.13;;;38.20;1.00;;;;;;5051495;28;20531;-68
2021/09/09 11:00:02;;;;;;;57.30;2.43;;;38.10;1.00;;;;;;5051414;28;20535;-69
2021/09/09 11:02:31;;;;;;;57.77;2.67;;;37.20;1.00;;;;;;5051845;28;20798;-68
2021/09/09 11:05:03;;;;;;;57.50;2.30;;;35.80;1.00;;;;;;5052055;28;20809;-68
2021/09/09 11:07:31;;;;;;;57.30;2.80;;;35.20;1.00;;;;;;5052026;28;20774;-68
2021/09/09 11:10:04;;;;;;;57.07;2.20;;;35.20;1.00;;;;;;5051764;28;20452;-68
2021/09/09 11:12:35;;;;;;;56.97;2.10;;;35.40;1.00;;;;;;5051539;28;20483;-69
2021/09/09 11:15:04;;;;;;;57.70;2.63;;;36.00;1.00;;;;;;5051993;28;20466;-69
2021/09/09 11:17:32;;;;;;;56.97;2.30;;;36.40;1.00;;;;;;5052034;28;20446;-68
2021/09/09 11:20:07;;;;;;;57.87;2.67;;;36.40;1.00;;;;;;5051023;28;20450;-68
2021/09/09 11:22:34;;;;;;;58.20;2.77;;;36.30;1.00;;;;;;5050910;28;20889;-68
2021/09/09 11:25:01;;;;;;;57.50;2.33;;;36.30;1.00;;;;;;5051600;28;21181;-68
2021/09/09 11:27:30;;;;;;;57.30;2.87;;;36.60;1.00;;;;;;5051304;28;20521;-68
2021/09/09 11:29:59;;;;;;;57.40;2.90;;;37.10;1.00;;;;;;5051513;28;20949;-69
2021/09/09 11:32:26;;;;;;;57.47;2.90;;;37.60;1.00;;;;;;5051689;28;21034;-69
2021/09/09 11:35:06;;;;;;;56.77;2.20;;;38.00;1.00;;;;;;5051862;28;20882;-68
2021/09/09 11:37:43;;;;;;;57.23;2.37;;;38.50;1.00;;;;;;5051791;28;20444;-69
2021/09/09 11:40:11;;;;;;;58.17;2.80;;;38.40;1.00;;;;;;5051841;28;20496;-69
2021/09/09 11:42:38;;;;;;;58.07;3.87;;;38.10;1.00;;;;;;5051826;28;20464;-69
2021/09/09 11:45:06;;;;;;;56.90;2.20;;;38.20;1.00;;;;;;5051824;28;20444;-69
2021/09/09 11:47:33;;;;;;;56.87;2.20;;;38.70;1.00;;;;;;5051535;28;20445;-68
2021/09/09 11:50:03;;;;;;;58.07;3.10;;;38.20;1.00;;;;;;5051444;28;20539;-68
2021/09/09 11:52:30;;;;;;;57.07;2.77;;;37.70;1.00;;;;;;5051427;28;20568;-68
2021/09/09 11:54:57;;;;;;;57.30;2.67;;;36.80;1.00;;;;;;5051566;28;20954;-68
2021/09/09 11:57:24;;;;;;;57.00;2.40;;;35.70;1.00;;;;;;5051914;28;20856;-68
2021/09/09 11:59:53;;;;;;;57.57;2.30;;;34.90;1.00;;;;;;5051411;28;20539;-69
2021/09/09 12:02:22;;;;;;;57.00;2.13;;;34.10;1.00;;;;;;5051137;28;21046;-69
2021/09/09 12:04:50;;;;;;;57.60;2.33;;;33.10;1.00;;;;;;5051784;28;20439;-68
2021/09/09 12:07:20;;;;;;;58.20;3.00;;;32.90;1.00;;;;;;5051785;28;20451;-68
2021/09/09 12:09:54;;;;;;;57.87;3.10;;;32.90;1.00;;;;;;5051744;28;20547;-68
2021/09/09 12:12:21;;;;;;;58.10;3.10;;;32.80;1.00;;;;;;5052116;28;20490;-68
2021/09/09 12:14:58;;;;;;;57.97;2.60;;;32.50;1.00;;;;;;5055407;28;20479;-69
2021/09/09 12:17:26;;;;;;;57.60;2.23;;;32.10;1.00;;;;;;5055207;28;20443;-69
2021/09/09 12:19:54;;;;;;;57.47;2.20;;;31.90;1.00;;;;;;5055231;28;20527;-68
2021/09/09 12:22:32;;;;;;;58.03;2.57;;;31.50;1.00;;;;;;5055178;28;20837;-69
2021/09/09 12:24:59;;;;;;;58.57;2.43;;;31.30;1.00;;;;;;5055327;28;20451;-69
2021/09/09 12:27:26;;;;;;;58.40;3.20;;;31.00;1.00;;;;;;5055164;28;20818;-69
2021/09/09 12:30:03;;;;;;;58.07;2.77;;;30.80;1.00;;;;;;5054679;28;20543;-69
2021/09/09 12:32:31;;;;;;;58.50;2.90;;;30.70;1.00;;;;;;5054984;28;20451;-68
2021/09/09 12:35:15;;;;;;;57.77;2.60;;;30.50;1.00;;;;;;5055052;28;20466;-70
2021/09/09 12:37:44;;;;;;;58.20;2.70;;;30.20;1.00;;;;;;5054907;28;20456;-69
2021/09/09 12:40:12;;;;;;;58.30;3.00;;;30.10;1.00;;;;;;5054496;28;20454;-70
2021/09/09 12:42:39;;;;;;;57.90;2.50;;;29.90;1.00;;;;;;5054877;28;20489;-70
2021/09/09 12:45:08;;;;;;;58.27;2.90;;;29.50;1.00;;;;;;5054968;28;20820;-68
2021/09/09 12:47:36;;;;;;;58.87;3.07;;;29.20;1.00;;;;;;5054782;28;20455;-68
2021/09/09 12:50:34;;;;;;;58.10;2.33;;;28.80;1.00;;;;;;5054504;28;20456;-69
2021/09/09 12:53:02;;;;;;;58.37;2.70;;;28.50;1.00;;;;;;5054914;28;20860;-69
2021/09/09 12:55:29;;;;;;;58.37;3.10;;;28.50;1.00;;;;;;5055027;28;20800;-68